sensor_id;sensor_type;location;lat;lon;timestamp;P1;durP1;ratioP1;P2;durP2;ratioP2
11211;SDS011;5663;50.864;12.096;2023-03-23T00:51:55;2.90;;;1.60;;
11211;SDS011;5663;50.864;12.096;2023-03-23T00:54:24;1.67;;;1.50;;
11211;SDS011;5663;50.864;12.096;2023-03-23T00:56:52;2.63;;;1.40;;
11211;SDS011;5663;50.864;12.096;2023-03-23T00:59:21;2.17;;;1.30;;
11211;SDS011;5663;50.864;12.096;2023-03-23T01:01:49;2.23;;;1.10;;
11211;SDS011;5663;50.864;12.096;2023-03-23T01:04:22;1.20;;;1.10;;
11211;SDS011;5663;50.864;12.096;2023-03-23T01:06:52;1.83;;;1.53;;
11211;SDS011;5663;50.864;12.096;2023-03-23T01:09:21;2.60;;;1.60;;
11211;SDS011;5663;50.864;12.096;2023-03-23T01:11:54;1.30;;;1.20;;
11211;SDS011;5663;50.864;12.096;2023-03-23T01:14:23;1.97;;;1.60;;
11211;SDS011;5663;50.864;12.096;2023-03-23T01:16:52;3.67;;;1.27;;
11211;SDS011;5663;50.864;12.096;2023-03-23T01:19:25;1.60;;;1.30;;
11211;SDS011;5663;50.864;12.096;2023-03-23T01:21:58;2.30;;;1.20;;
11211;SDS011;5663;50.864;12.096;2023-03-23T01:24:35;1.40;;;1.30;;
11211;SDS011;5663;50.864;12.096;2023-03-23T01:27:12;1.40;;;1.30;;
11211;SDS011;5663;50.864;12.096;2023-03-23T01:29:43;1.93;;;1.30;;
11211;SDS011;5663;50.864;12.096;2023-03-23T01:32:11;1.67;;;1.30;;
11211;SDS011;5663;50.864;12.096;2023-03-23T01:34:40;3.57;;;1.60;;
11211;SDS011;5663;50.864;12.096;2023-03-23T01:37:16;3.23;;;1.50;;
11211;SDS011;5663;50.864;12.096;2023-03-23T01:39:55;1.37;;;1.20;;
11211;SDS011;5663;50.864;12.096;2023-03-23T01:42:25;2.20;;;1.37;;
11211;SDS011;5663;50.864;12.096;2023-03-23T01:47:57;1.70;;;1.40;;
11211;SDS011;5663;50.864;12.096;2023-03-23T01:50:30;4.77;;;1.27;;
11211;SDS011;5663;50.864;12.096;2023-03-23T03:52:53;2.90;;;1.50;;
11211;SDS011;5663;50.864;12.096;2023-03-23T03:55:22;1.97;;;1.53;;
11211;SDS011;5663;50.864;12.096;2023-03-23T03:57:50;2.90;;;1.40;;
11211;SDS011;5663;50.864;12.096;2023-03-23T04:00:18;2.47;;;1.40;;
11211;SDS011;5663;50.864;12.096;2023-03-23T04:02:46;4.13;;;1.80;;
11211;SDS011;5663;50.864;12.096;2023-03-23T04:05:17;3.60;;;1.60;;
11211;SDS011;5663;50.864;12.096;2023-03-23T04:07:46;2.20;;;1.70;;
11211;SDS011;5663;50.864;12.096;2023-03-23T04:10:19;3.33;;;1.70;;
11211;SDS011;5663;50.864;12.096;2023-03-23T04:12:48;3.97;;;1.57;;
11211;SDS011;5663;50.864;12.096;2023-03-23T04:15:15;2.27;;;1.40;;
11211;SDS011;5663;50.864;12.096;2023-03-23T04:17:43;3.90;;;1.40;;
11211;SDS011;5663;50.864;12.096;2023-03-23T04:20:11;2.43;;;1.30;;
11211;SDS011;5663;50.864;12.096;2023-03-23T04:22:43;1.83;;;1.57;;
11211;SDS011;5663;50.864;12.096;2023-03-23T04:25:15;1.47;;;1.37;;
11211;SDS011;5663;50.864;12.096;2023-03-23T04:27:48;4.13;;;1.77;;
11211;SDS011;5663;50.864;12.096;2023-03-23T04:30:18;2.57;;;1.50;;
11211;SDS011;5663;50.864;12.096;2023-03-23T04:32:47;3.37;;;1.50;;
11211;SDS011;5663;50.864;12.096;2023-03-23T04:35:18;3.53;;;1.50;;
11211;SDS011;5663;50.864;12.096;2023-03-23T04:37:48;3.07;;;1.60;;
11211;SDS011;5663;50.864;12.096;2023-03-23T04:40:16;2.13;;;1.50;;
11211;SDS011;5663;50.864;12.096;2023-03-23T04:42:44;2.33;;;1.50;;
11211;SDS011;5663;50.864;12.096;2023-03-23T04:45:14;2.37;;;1.57;;
11211;SDS011;5663;50.864;12.096;2023-03-23T04:47:47;3.43;;;1.77;;
11211;SDS011;5663;50.864;12.096;2023-03-23T04:50:19;1.63;;;1.53;;
11211;SDS011;5663;50.864;12.096;2023-03-23T06:53:22;2.77;;;1.57;;
11211;SDS011;5663;50.864;12.096;2023-03-23T06:55:51;2.07;;;1.40;;
11211;SDS011;5663;50.864;12.096;2023-03-23T06:58:20;2.90;;;1.50;;
11211;SDS011;5663;50.864;12.096;2023-03-23T07:00:53;2.57;;;1.60;;
11211;SDS011;5663;50.864;12.096;2023-03-23T07:03:28;1.67;;;1.50;;
11211;SDS011;5663;50.864;12.096;2023-03-23T07:05:56;4.13;;;1.80;;
11211;SDS011;5663;50.864;12.096;2023-03-23T07:08:26;2.13;;;1.70;;
11211;SDS011;5663;50.864;12.096;2023-03-23T07:10:54;2.63;;;1.60;;
11211;SDS011;5663;50.864;12.096;2023-03-23T07:13:23;5.73;;;2.13;;
11211;SDS011;5663;50.864;12.096;2023-03-23T07:15:51;4.80;;;1.70;;
11211;SDS011;5663;50.864;12.096;2023-03-23T07:18:20;2.00;;;1.70;;
11211;SDS011;5663;50.864;12.096;2023-03-23T07:20:48;4.20;;;2.13;;
11211;SDS011;5663;50.864;12.096;2023-03-23T07:23:16;2.97;;;1.90;;
11211;SDS011;5663;50.864;12.096;2023-03-23T07:25:46;6.60;;;1.70;;
11211;SDS011;5663;50.864;12.096;2023-03-23T07:28:14;2.40;;;1.40;;
11211;SDS011;5663;50.864;12.096;2023-03-23T07:30:42;2.23;;;1.40;;
11211;SDS011;5663;50.864;12.096;2023-03-23T07:33:10;3.70;;;1.30;;
11211;SDS011;5663;50.864;12.096;2023-03-23T07:35:38;2.77;;;1.50;;
11211;SDS011;5663;50.864;12.096;2023-03-23T07:38:06;3.47;;;1.57;;
11211;SDS011;5663;50.864;12.096;2023-03-23T07:40:34;3.67;;;1.40;;
11211;SDS011;5663;50.864;12.096;2023-03-23T07:43:04;3.40;;;2.00;;
11211;SDS011;5663;50.864;12.096;2023-03-23T07:45:32;1.83;;;1.50;;
11211;SDS011;5663;50.864;12.096;2023-03-23T07:47:59;3.20;;;1.50;;
11211;SDS011;5663;50.864;12.096;2023-03-23T07:50:27;3.80;;;1.83;;
11211;SDS011;5663;50.864;12.096;2023-03-23T07:52:55;3.13;;;1.70;;
11211;SDS011;5663;50.864;12.096;2023-03-23T07:55:25;2.90;;;1.60;;
11211;SDS011;5663;50.864;12.096;2023-03-23T07:57:53;1.83;;;1.40;;
11211;SDS011;5663;50.864;12.096;2023-03-23T08:00:23;1.67;;;1.50;;
11211;SDS011;5663;50.864;12.096;2023-03-23T08:02:51;1.67;;;1.57;;
11211;SDS011;5663;50.864;12.096;2023-03-23T08:05:21;1.80;;;1.50;;
11211;SDS011;5663;50.864;12.096;2023-03-23T08:07:50;1.83;;;1.53;;
11211;SDS011;5663;50.864;12.096;2023-03-23T08:10:17;2.33;;;1.70;;
11211;SDS011;5663;50.864;12.096;2023-03-23T08:12:50;1.90;;;1.70;;
11211;SDS011;5663;50.864;12.096;2023-03-23T08:15:18;3.03;;;1.73;;
11211;SDS011;5663;50.864;12.096;2023-03-23T08:17:48;2.30;;;1.50;;
11211;SDS011;5663;50.864;12.096;2023-03-23T08:20:17;2.40;;;1.67;;
11211;SDS011;5663;50.864;12.096;2023-03-23T08:22:48;7.10;;;1.60;;
11211;SDS011;5663;50.864;12.096;2023-03-23T08:25:18;2.10;;;1.60;;
11211;SDS011;5663;50.864;12.096;2023-03-23T08:27:46;3.03;;;1.90;;
11211;SDS011;5663;50.864;12.096;2023-03-23T08:30:15;2.87;;;1.70;;
11211;SDS011;5663;50.864;12.096;2023-03-23T08:32:45;2.80;;;1.77;;
11211;SDS011;5663;50.864;12.096;2023-03-23T08:35:15;1.73;;;1.60;;
11211;SDS011;5663;50.864;12.096;2023-03-23T08:37:43;1.97;;;1.70;;
11211;SDS011;5663;50.864;12.096;2023-03-23T08:40:12;3.93;;;1.83;;
11211;SDS011;5663;50.864;12.096;2023-03-23T08:42:42;1.97;;;1.80;;
11211;SDS011;5663;50.864;12.096;2023-03-23T08:45:12;2.93;;;1.83;;
11211;SDS011;5663;50.864;12.096;2023-03-23T08:47:43;2.47;;;1.83;;
11211;SDS011;5663;50.864;12.096;2023-03-23T08:50:12;2.77;;;1.73;;
11211;SDS011;5663;50.864;12.096;2023-03-23T08:52:43;3.53;;;1.80;;
11211;SDS011;5663;50.864;12.096;2023-03-23T09:56:51;2.57;;;1.80;;
11211;SDS011;5663;50.864;12.096;2023-03-23T09:59:20;3.97;;;1.60;;
11211;SDS011;5663;50.864;12.096;2023-03-23T10:01:52;3.07;;;1.60;;
11211;SDS011;5663;50.864;12.096;2023-03-23T10:04:26;3.27;;;1.70;;
11211;SDS011;5663;50.864;12.096;2023-03-23T10:06:58;3.00;;;1.80;;
11211;SDS011;5663;50.864;12.096;2023-03-23T10:09:32;2.37;;;1.57;;
11211;SDS011;5663;50.864;12.096;2023-03-23T10:12:04;3.07;;;1.40;;
11211;SDS011;5663;50.864;12.096;2023-03-23T10:14:46;2.33;;;1.37;;
11211;SDS011;5663;50.864;12.096;2023-03-23T10:17:26;2.63;;;1.40;;
11211;SDS011;5663;50.864;12.096;2023-03-23T10:19:58;1.50;;;1.40;;
11211;SDS011;5663;50.864;12.096;2023-03-23T10:22:37;1.60;;;1.20;;
11211;SDS011;5663;50.864;12.096;2023-03-23T10:25:14;4.63;;;1.80;;
11211;SDS011;5663;50.864;12.096;2023-03-23T10:27:48;2.90;;;1.60;;
11211;SDS011;5663;50.864;12.096;2023-03-23T10:30:23;3.20;;;1.70;;
11211;SDS011;5663;50.864;12.096;2023-03-23T10:32:55;1.90;;;1.30;;
11211;SDS011;5663;50.864;12.096;2023-03-23T10:35:29;2.30;;;1.30;;
11211;SDS011;5663;50.864;12.096;2023-03-23T10:38:05;1.50;;;1.40;;
11211;SDS011;5663;50.864;12.096;2023-03-23T10:40:50;1.40;;;1.20;;
11211;SDS011;5663;50.864;12.096;2023-03-23T10:43:22;2.97;;;1.50;;
11211;SDS011;5663;50.864;12.096;2023-03-23T10:45:52;2.80;;;1.10;;
11211;SDS011;5663;50.864;12.096;2023-03-23T10:48:33;1.80;;;1.20;;
11211;SDS011;5663;50.864;12.096;2023-03-23T10:51:05;2.40;;;1.40;;
11211;SDS011;5663;50.864;12.096;2023-03-23T10:53:38;3.40;;;1.43;;
11211;SDS011;5663;50.864;12.096;2023-03-23T10:56:21;2.67;;;1.60;;
11211;SDS011;5663;50.864;12.096;2023-03-23T10:58:52;5.80;;;1.90;;
11211;SDS011;5663;50.864;12.096;2023-03-23T11:01:27;1.73;;;1.40;;
11211;SDS011;5663;50.864;12.096;2023-03-23T11:03:57;3.33;;;1.80;;
11211;SDS011;5663;50.864;12.096;2023-03-23T11:06:28;2.87;;;1.70;;
11211;SDS011;5663;50.864;12.096;2023-03-23T11:09:00;2.30;;;1.90;;
11211;SDS011;5663;50.864;12.096;2023-03-23T11:11:31;1.87;;;1.47;;
11211;SDS011;5663;50.864;12.096;2023-03-23T11:14:14;4.77;;;1.60;;
11211;SDS011;5663;50.864;12.096;2023-03-23T11:16:44;4.50;;;1.77;;
11211;SDS011;5663;50.864;12.096;2023-03-23T11:19:21;4.33;;;1.60;;
11211;SDS011;5663;50.864;12.096;2023-03-23T11:21:51;3.70;;;1.90;;
11211;SDS011;5663;50.864;12.096;2023-03-23T11:24:21;2.47;;;1.77;;
11211;SDS011;5663;50.864;12.096;2023-03-23T11:26:50;1.57;;;1.40;;
11211;SDS011;5663;50.864;12.096;2023-03-23T11:29:20;1.73;;;1.50;;
11211;SDS011;5663;50.864;12.096;2023-03-23T11:31:50;2.87;;;1.90;;
11211;SDS011;5663;50.864;12.096;2023-03-23T11:34:21;3.40;;;1.63;;
11211;SDS011;5663;50.864;12.096;2023-03-23T11:36:52;3.53;;;1.60;;
11211;SDS011;5663;50.864;12.096;2023-03-23T11:39:23;3.40;;;1.93;;
11211;SDS011;5663;50.864;12.096;2023-03-23T11:41:52;3.53;;;1.73;;
11211;SDS011;5663;50.864;12.096;2023-03-23T11:44:23;1.57;;;1.20;;
11211;SDS011;5663;50.864;12.096;2023-03-23T11:46:55;2.17;;;1.60;;
11211;SDS011;5663;50.864;12.096;2023-03-23T11:49:31;1.97;;;1.73;;
11211;SDS011;5663;50.864;12.096;2023-03-23T11:52:09;3.10;;;1.57;;
11211;SDS011;5663;50.864;12.096;2023-03-23T11:54:43;1.80;;;1.40;;
11211;SDS011;5663;50.864;12.096;2023-03-23T11:57:17;1.60;;;1.50;;
11211;SDS011;5663;50.864;12.096;2023-03-23T11:59:46;2.17;;;1.47;;
11211;SDS011;5663;50.864;12.096;2023-03-23T12:02:19;1.90;;;1.70;;
11211;SDS011;5663;50.864;12.096;2023-03-23T12:07:56;1.70;;;1.50;;
11211;SDS011;5663;50.864;12.096;2023-03-23T12:10:38;2.17;;;1.50;;
11211;SDS011;5663;50.864;12.096;2023-03-23T12:13:27;2.17;;;1.40;;
11211;SDS011;5663;50.864;12.096;2023-03-23T12:16:08;1.47;;;1.30;;
11211;SDS011;5663;50.864;12.096;2023-03-23T12:18:46;1.33;;;1.23;;
11211;SDS011;5663;50.864;12.096;2023-03-23T12:21:22;1.60;;;1.27;;
11211;SDS011;5663;50.864;12.096;2023-03-23T12:24:01;3.13;;;1.30;;
11211;SDS011;5663;50.864;12.096;2023-03-23T12:26:39;1.40;;;1.00;;
11211;SDS011;5663;50.864;12.096;2023-03-23T12:29:15;1.43;;;1.10;;
11211;SDS011;5663;50.864;12.096;2023-03-23T12:32:17;2.87;;;1.40;;
11211;SDS011;5663;50.864;12.096;2023-03-23T12:35:00;1.87;;;1.40;;
11211;SDS011;5663;50.864;12.096;2023-03-23T12:37:41;1.47;;;1.13;;
11211;SDS011;5663;50.864;12.096;2023-03-23T12:40:22;1.50;;;1.30;;
11211;SDS011;5663;50.864;12.096;2023-03-23T12:43:01;3.50;;;1.30;;
11211;SDS011;5663;50.864;12.096;2023-03-23T12:45:47;1.43;;;1.10;;
11211;SDS011;5663;50.864;12.096;2023-03-23T12:48:23;1.40;;;1.27;;
11211;SDS011;5663;50.864;12.096;2023-03-23T12:51:11;1.97;;;1.17;;
11211;SDS011;5663;50.864;12.096;2023-03-23T12:53:47;4.03;;;1.27;;
11211;SDS011;5663;50.864;12.096;2023-03-23T15:59:02;12.27;;;2.33;;
11211;SDS011;5663;50.864;12.096;2023-03-23T16:01:32;3.57;;;1.30;;
11211;SDS011;5663;50.864;12.096;2023-03-23T16:04:00;1.33;;;1.10;;
11211;SDS011;5663;50.864;12.096;2023-03-23T16:06:32;1.50;;;1.07;;
11211;SDS011;5663;50.864;12.096;2023-03-23T16:09:02;1.13;;;1.00;;
11211;SDS011;5663;50.864;12.096;2023-03-23T16:11:31;2.90;;;1.60;;
11211;SDS011;5663;50.864;12.096;2023-03-23T16:14:00;15.60;;;2.00;;
11211;SDS011;5663;50.864;12.096;2023-03-23T16:16:28;2.30;;;1.50;;
11211;SDS011;5663;50.864;12.096;2023-03-23T16:18:58;2.70;;;2.00;;
11211;SDS011;5663;50.864;12.096;2023-03-23T16:21:26;4.07;;;2.53;;
11211;SDS011;5663;50.864;12.096;2023-03-23T16:23:53;2.53;;;2.00;;
11211;SDS011;5663;50.864;12.096;2023-03-23T16:26:21;4.70;;;2.13;;
11211;SDS011;5663;50.864;12.096;2023-03-23T16:28:49;5.13;;;1.83;;
11211;SDS011;5663;50.864;12.096;2023-03-23T16:31:18;5.43;;;2.80;;
11211;SDS011;5663;50.864;12.096;2023-03-23T16:33:46;5.80;;;2.60;;
11211;SDS011;5663;50.864;12.096;2023-03-23T16:36:13;4.27;;;2.60;;
11211;SDS011;5663;50.864;12.096;2023-03-23T16:38:42;7.00;;;2.20;;
11211;SDS011;5663;50.864;12.096;2023-03-23T16:41:11;3.37;;;1.73;;
11211;SDS011;5663;50.864;12.096;2023-03-23T16:43:40;5.43;;;1.60;;
11211;SDS011;5663;50.864;12.096;2023-03-23T16:46:08;1.73;;;1.60;;
11211;SDS011;5663;50.864;12.096;2023-03-23T16:48:41;8.93;;;2.00;;
11211;SDS011;5663;50.864;12.096;2023-03-23T16:51:11;2.43;;;1.77;;
11211;SDS011;5663;50.864;12.096;2023-03-23T16:53:39;5.90;;;1.80;;
11211;SDS011;5663;50.864;12.096;2023-03-23T16:56:07;7.60;;;1.83;;
11211;SDS011;5663;50.864;12.096;2023-03-23T17:59:52;4.50;;;2.20;;
11211;SDS011;5663;50.864;12.096;2023-03-23T18:02:23;4.53;;;2.07;;
11211;SDS011;5663;50.864;12.096;2023-03-23T18:04:50;3.43;;;2.07;;
11211;SDS011;5663;50.864;12.096;2023-03-23T18:07:21;5.90;;;2.27;;
11211;SDS011;5663;50.864;12.096;2023-03-23T18:09:48;10.37;;;2.30;;
11211;SDS011;5663;50.864;12.096;2023-03-23T18:12:16;3.63;;;1.87;;
11211;SDS011;5663;50.864;12.096;2023-03-23T18:14:46;3.57;;;2.33;;
11211;SDS011;5663;50.864;12.096;2023-03-23T18:17:14;2.23;;;2.03;;
11211;SDS011;5663;50.864;12.096;2023-03-23T18:19:42;2.97;;;1.87;;
11211;SDS011;5663;50.864;12.096;2023-03-23T18:22:11;1.70;;;1.60;;
11211;SDS011;5663;50.864;12.096;2023-03-23T18:24:40;2.30;;;2.07;;
11211;SDS011;5663;50.864;12.096;2023-03-23T18:27:08;3.17;;;1.83;;
11211;SDS011;5663;50.864;12.096;2023-03-23T18:29:36;1.80;;;1.70;;
11211;SDS011;5663;50.864;12.096;2023-03-23T18:32:05;3.37;;;1.87;;
11211;SDS011;5663;50.864;12.096;2023-03-23T18:34:33;3.90;;;1.90;;
11211;SDS011;5663;50.864;12.096;2023-03-23T18:37:01;2.43;;;2.00;;
11211;SDS011;5663;50.864;12.096;2023-03-23T18:39:30;3.17;;;1.83;;
11211;SDS011;5663;50.864;12.096;2023-03-23T18:41:58;2.10;;;1.80;;
11211;SDS011;5663;50.864;12.096;2023-03-23T18:44:26;2.00;;;1.80;;
11211;SDS011;5663;50.864;12.096;2023-03-23T18:46:55;1.90;;;1.70;;
11211;SDS011;5663;50.864;12.096;2023-03-23T18:49:24;1.80;;;1.70;;
11211;SDS011;5663;50.864;12.096;2023-03-23T18:51:53;2.70;;;1.63;;
11211;SDS011;5663;50.864;12.096;2023-03-23T18:54:20;4.43;;;1.87;;
11211;SDS011;5663;50.864;12.096;2023-03-23T18:56:48;2.53;;;1.90;;
11211;SDS011;5663;50.864;12.096;2023-03-23T22:03:55;1.70;;;1.60;;
11211;SDS011;5663;50.864;12.096;2023-03-23T22:06:24;1.67;;;1.40;;
11211;SDS011;5663;50.864;12.096;2023-03-23T22:08:53;1.60;;;1.30;;
11211;SDS011;5663;50.864;12.096;2023-03-23T22:11:22;1.53;;;1.43;;
11211;SDS011;5663;50.864;12.096;2023-03-23T22:13:51;2.50;;;1.80;;
11211;SDS011;5663;50.864;12.096;2023-03-23T22:16:21;1.97;;;1.60;;
11211;SDS011;5663;50.864;12.096;2023-03-23T22:18:51;4.87;;;1.67;;
11211;SDS011;5663;50.864;12.096;2023-03-23T22:21:21;4.17;;;1.60;;
11211;SDS011;5663;50.864;12.096;2023-03-23T22:23:50;2.10;;;1.90;;
11211;SDS011;5663;50.864;12.096;2023-03-23T22:26:19;4.80;;;1.90;;
11211;SDS011;5663;50.864;12.096;2023-03-23T22:28:47;2.87;;;2.20;;
11211;SDS011;5663;50.864;12.096;2023-03-23T22:31:16;3.10;;;1.73;;
11211;SDS011;5663;50.864;12.096;2023-03-23T22:33:47;4.17;;;2.00;;
11211;SDS011;5663;50.864;12.096;2023-03-23T22:36:17;2.87;;;2.20;;
11211;SDS011;5663;50.864;12.096;2023-03-23T22:38:45;2.37;;;2.10;;
11211;SDS011;5663;50.864;12.096;2023-03-23T22:41:14;2.67;;;1.83;;
11211;SDS011;5663;50.864;12.096;2023-03-23T22:43:43;4.03;;;2.70;;
11211;SDS011;5663;50.864;12.096;2023-03-23T22:46:11;3.80;;;2.50;;
11211;SDS011;5663;50.864;12.096;2023-03-23T22:48:39;3.90;;;2.00;;
11211;SDS011;5663;50.864;12.096;2023-03-23T22:51:07;3.37;;;2.53;;
11211;SDS011;5663;50.864;12.096;2023-03-23T22:53:38;3.67;;;2.27;;
11211;SDS011;5663;50.864;12.096;2023-03-23T22:56:07;3.33;;;2.43;;
11211;SDS011;5663;50.864;12.096;2023-03-23T22:58:36;5.03;;;2.67;;
11211;SDS011;5663;50.864;12.096;2023-03-23T23:01:05;3.73;;;2.17;;
11211;SDS011;5663;50.864;12.096;2023-03-23T23:03:35;2.87;;;2.40;;
11211;SDS011;5663;50.864;12.096;2023-03-23T23:06:03;5.57;;;2.33;;
11211;SDS011;5663;50.864;12.096;2023-03-23T23:08:32;3.67;;;2.80;;
11211;SDS011;5663;50.864;12.096;2023-03-23T23:11:02;3.70;;;2.50;;
11211;SDS011;5663;50.864;12.096;2023-03-23T23:13:31;3.50;;;2.70;;
11211;SDS011;5663;50.864;12.096;2023-03-23T23:16:00;9.60;;;2.87;;
11211;SDS011;5663;50.864;12.096;2023-03-23T23:18:28;2.90;;;2.50;;
11211;SDS011;5663;50.864;12.096;2023-03-23T23:20:59;3.83;;;2.63;;
11211;SDS011;5663;50.864;12.096;2023-03-23T23:23:28;3.00;;;2.47;;
11211;SDS011;5663;50.864;12.096;2023-03-23T23:25:56;3.03;;;2.50;;
11211;SDS011;5663;50.864;12.096;2023-03-23T23:28:26;3.70;;;2.20;;
11211;SDS011;5663;50.864;12.096;2023-03-23T23:30:55;4.27;;;2.53;;
11211;SDS011;5663;50.864;12.096;2023-03-23T23:33:24;4.30;;;2.10;;
11211;SDS011;5663;50.864;12.096;2023-03-23T23:35:53;3.13;;;2.40;;
11211;SDS011;5663;50.864;12.096;2023-03-23T23:38:21;5.07;;;2.67;;
11211;SDS011;5663;50.864;12.096;2023-03-23T23:40:49;4.00;;;2.70;;
11211;SDS011;5663;50.864;12.096;2023-03-23T23:43:17;6.07;;;3.20;;
11211;SDS011;5663;50.864;12.096;2023-03-23T23:45:47;5.07;;;2.90;;
11211;SDS011;5663;50.864;12.096;2023-03-23T23:48:15;3.30;;;2.77;;
